Time;durP1;ratioP1;P1;durP2;ratioP2;P2;SDS_P1;SDS_P2;PMS_P1;PMS_P2;Temp;Humidity;BMP_temperature;BMP_pressure;BME280_temperature;BME280_humidity;BME280_pressure;Samples;Min_cycle;Max_cycle;Signal;HPM_P1;HPM_P2
2023/01/29 00:01:35;;;;;;;1999.90;999.90;;;-2.80;99.90;;;;;;5065555;28;20229;-51
2023/01/29 00:04:03;;;;;;;1105.90;951.23;;;-2.70;99.90;;;;;;5065724;28;20247;-51
2023/01/29 00:06:31;;;;;;;1110.77;857.17;;;-2.70;99.90;;;;;;5049453;28;20308;-51
2023/01/29 00:08:59;;;;;;;960.47;864.13;;;-2.80;99.90;;;;;;5052001;28;20311;-50
2023/01/29 00:11:28;;;;;;;1813.97;950.80;;;-2.80;99.90;;;;;;5052348;28;20329;-51
2023/01/29 00:13:55;;;;;;;1999.90;948.00;;;-2.90;99.90;;;;;;5051641;28;20296;-51
2023/01/29 00:16:24;;;;;;;1634.70;934.87;;;-2.90;99.90;;;;;;5051830;28;20300;-51
2023/01/29 00:18:53;;;;;;;1526.10;910.17;;;-2.90;99.90;;;;;;5051496;28;20312;-51
2023/01/29 00:21:22;;;;;;;1144.00;881.87;;;-3.00;99.90;;;;;;5052426;28;20254;-53
2023/01/29 00:23:51;;;;;;;1312.77;916.67;;;-3.00;99.90;;;;;;5051755;28;20211;-51
2023/01/29 00:26:19;;;;;;;1597.67;972.70;;;-3.00;99.90;;;;;;5052037;28;20218;-51
2023/01/29 00:28:47;;;;;;;1929.90;911.07;;;-3.10;99.90;;;;;;5052011;28;20297;-51
2023/01/29 00:31:18;;;;;;;1999.90;999.90;;;-3.10;99.90;;;;;;5051919;28;20241;-51
2023/01/29 00:33:47;;;;;;;1077.77;839.10;;;-3.10;99.90;;;;;;5047941;28;20222;-51
2023/01/29 00:36:18;;;;;;;991.40;889.60;;;-3.20;99.90;;;;;;5072100;28;20205;-51
2023/01/29 00:38:53;;;;;;;1999.90;999.90;;;-3.10;99.90;;;;;;5071711;28;20310;-50
2023/01/29 00:46:53;;;;;;;1999.90;999.90;;;-3.20;99.90;;;;;;5047585;28;20299;-50
2023/01/29 00:49:21;;;;;;;1375.17;926.60;;;-3.20;99.90;;;;;;5042095;28;20217;-52
2023/01/29 00:54:33;;;;;;;1999.90;999.77;;;-3.30;99.90;;;;;;5040722;28;20291;-50
2023/01/29 00:57:01;;;;;;;1999.90;999.90;;;-3.30;99.90;;;;;;5050485;28;20204;-51
2023/01/29 00:59:30;;;;;;;1999.90;999.90;;;-3.30;99.90;;;;;;5050348;28;20224;-51
2023/01/29 01:04:43;;;;;;;1372.00;980.40;;;-3.40;99.90;;;;;;5051895;28;20247;-51
2023/01/29 01:07:13;;;;;;;1492.30;999.90;;;-3.40;99.90;;;;;;5050337;28;20291;-53
2023/01/29 01:12:27;;;;;;;1508.23;999.90;;;-3.40;99.90;;;;;;5050951;28;20315;-52
2023/01/29 01:14:55;;;;;;;1325.83;999.90;;;-3.50;99.90;;;;;;5051212;28;20244;-51
2023/01/29 01:17:23;;;;;;;1101.20;943.33;;;-3.50;99.90;;;;;;5049806;28;20208;-51
2023/01/29 01:19:51;;;;;;;1214.37;999.90;;;-3.40;99.90;;;;;;5040632;28;20314;-49
2023/01/29 01:22:20;;;;;;;1001.33;903.13;;;-3.40;99.90;;;;;;5045286;28;20251;-50
2023/01/29 01:24:49;;;;;;;1496.10;999.90;;;-3.40;99.90;;;;;;5051006;28;20210;-52
2023/01/29 01:27:18;;;;;;;1133.93;989.43;;;-3.40;99.90;;;;;;5050793;28;20216;-52
2023/01/29 01:29:46;;;;;;;1302.53;961.83;;;-3.40;99.90;;;;;;5049199;28;20206;-50
2023/01/29 01:32:15;;;;;;;1999.83;999.90;;;-3.50;99.90;;;;;;5046686;28;20240;-51
2023/01/29 01:34:43;;;;;;;1904.47;999.90;;;-3.60;99.90;;;;;;5055043;28;20268;-52
2023/01/29 01:37:11;;;;;;;1208.37;965.47;;;-3.60;99.90;;;;;;5047082;28;20215;-52
2023/01/29 01:39:41;;;;;;;1239.03;999.90;;;-3.60;99.90;;;;;;5064843;28;20594;-51
2023/01/29 01:42:12;;;;;;;1999.90;999.90;;;-3.60;99.90;;;;;;5051538;28;20243;-51
2023/01/29 01:44:57;;;;;;;1750.40;999.90;;;-3.60;99.90;;;;;;5053625;28;20313;-52
2023/01/29 01:47:33;;;;;;;1077.10;963.03;;;-3.60;99.90;;;;;;5059409;28;20202;-50
2023/01/29 01:50:07;;;;;;;1999.90;999.90;;;-3.60;99.90;;;;;;5061271;28;20211;-51
2023/01/29 01:52:38;;;;;;;1233.97;999.90;;;-3.60;99.90;;;;;;5065955;28;20863;-52
2023/01/29 01:55:09;;;;;;;1466.93;999.90;;;-3.60;99.90;;;;;;5064760;28;20303;-54
2023/01/29 01:57:37;;;;;;;1133.07;997.70;;;-3.60;99.90;;;;;;5060221;28;20289;-51
2023/01/29 02:00:11;;;;;;;1437.77;917.43;;;-3.50;99.90;;;;;;5057713;28;20333;-51
2023/01/29 02:11:01;;;;;;;1103.67;980.00;;;-3.30;99.90;;;;;;5070025;28;20305;-51
2023/01/29 02:13:29;;;;;;;1999.90;999.90;;;-3.20;99.90;;;;;;5047918;28;20233;-51
2023/01/29 02:15:57;;;;;;;937.03;841.93;;;-3.10;99.90;;;;;;5058601;28;20216;-51
2023/01/29 02:18:25;;;;;;;1441.13;922.50;;;-3.10;99.90;;;;;;5067560;28;20232;-51
2023/01/29 02:21:12;;;;;;;737.63;658.90;;;-3.00;99.90;;;;;;5069844;28;20979;-51
2023/01/29 02:24:11;;;;;;;769.30;696.77;;;-3.00;99.90;;;;;;5069589;28;20290;-51
2023/01/29 02:26:55;;;;;;;872.37;783.47;;;-2.90;99.90;;;;;;5061448;28;20630;-51
2023/01/29 02:29:34;;;;;;;1119.70;990.53;;;-2.90;99.90;;;;;;5067893;28;20695;-51
2023/01/29 02:32:15;;;;;;;984.57;849.10;;;-3.00;99.90;;;;;;5067611;28;20254;-51
2023/01/29 02:37:45;;;;;;;983.53;879.23;;;-3.10;99.90;;;;;;5066947;28;20221;-50
2023/01/29 02:40:24;;;;;;;937.60;842.93;;;-3.10;99.90;;;;;;5069227;28;20664;-50
2023/01/29 02:43:00;;;;;;;948.17;856.53;;;-3.10;99.90;;;;;;5069227;28;20266;-51
2023/01/29 02:45:34;;;;;;;960.20;868.63;;;-3.20;99.90;;;;;;5069339;28;20220;-51
2023/01/29 02:48:03;;;;;;;963.13;865.13;;;-3.20;99.90;;;;;;5059065;28;20248;-51
2023/01/29 02:50:37;;;;;;;1010.77;861.10;;;-3.20;99.90;;;;;;5051192;28;20772;-50
2023/01/29 02:53:10;;;;;;;1172.40;999.90;;;-3.30;99.90;;;;;;5069291;28;20242;-51
2023/01/29 02:55:43;;;;;;;1188.90;995.00;;;-3.30;99.90;;;;;;5072612;28;20624;-51
2023/01/29 02:58:16;;;;;;;1011.57;908.00;;;-3.30;99.90;;;;;;5059548;28;20831;-51
2023/01/29 03:00:49;;;;;;;849.33;765.70;;;-3.30;99.90;;;;;;5064101;28;20743;-51
2023/01/29 03:03:20;;;;;;;995.87;890.57;;;-3.40;99.90;;;;;;5072259;28;20236;-51
2023/01/29 03:05:57;;;;;;;1051.60;942.80;;;-3.40;99.90;;;;;;5060587;28;20294;-51
2023/01/29 03:08:41;;;;;;;822.70;744.87;;;-3.40;99.90;;;;;;5038254;28;20893;-51
2023/01/29 03:11:12;;;;;;;1326.47;991.90;;;-3.40;99.90;;;;;;5042997;28;20669;-51
2023/01/29 03:13:45;;;;;;;973.93;867.17;;;-3.40;99.90;;;;;;5048754;28;20244;-51
2023/01/29 03:16:24;;;;;;;1009.60;869.40;;;-3.40;99.90;;;;;;5034958;28;20205;-51
2023/01/29 03:18:56;;;;;;;1271.77;999.90;;;-3.40;99.90;;;;;;5045001;28;20270;-51
2023/01/29 03:32:46;;;;;;;1068.00;938.67;;;-3.50;99.90;;;;;;5046411;28;20230;-51
2023/01/29 03:35:19;;;;;;;1080.30;962.27;;;-3.60;99.90;;;;;;5046714;28;20206;-51
2023/01/29 03:37:49;;;;;;;1238.87;989.87;;;-3.60;99.90;;;;;;5042281;28;20208;-51
2023/01/29 03:40:17;;;;;;;1792.17;999.90;;;-3.60;99.90;;;;;;5045461;28;20235;-51
2023/01/29 03:43:01;;;;;;;1208.87;999.90;;;-3.70;99.90;;;;;;5048655;28;20289;-51
2023/01/29 03:45:41;;;;;;;1209.17;999.90;;;-3.70;99.90;;;;;;5048762;28;20218;-51
2023/01/29 03:48:16;;;;;;;1012.03;914.67;;;-3.80;99.90;;;;;;5048921;28;20215;-51
2023/01/29 03:50:54;;;;;;;1179.13;999.90;;;-3.70;99.90;;;;;;5051657;28;20212;-51
2023/01/29 03:53:28;;;;;;;1328.73;999.90;;;-3.70;99.90;;;;;;5068370;28;20294;-50
2023/01/29 03:56:00;;;;;;;1122.23;989.73;;;-3.70;99.90;;;;;;5068634;28;20647;-51
2023/01/29 03:58:37;;;;;;;1303.43;999.90;;;-3.80;99.90;;;;;;5069100;28;20239;-51
2023/01/29 04:01:11;;;;;;;1067.17;959.73;;;-3.70;99.90;;;;;;5068306;28;20307;-51
2023/01/29 04:03:48;;;;;;;1153.50;999.90;;;-3.70;99.90;;;;;;5068506;28;20212;-51
2023/01/29 04:06:18;;;;;;;1132.97;990.80;;;-3.70;99.90;;;;;;5044111;28;20268;-51
2023/01/29 04:08:52;;;;;;;1173.43;999.90;;;-3.70;99.90;;;;;;5068394;28;20736;-51
2023/01/29 04:11:22;;;;;;;916.97;830.13;;;-3.70;99.90;;;;;;5067564;28;20321;-51
2023/01/29 04:13:52;;;;;;;969.47;869.33;;;-3.60;99.90;;;;;;5068108;28;20297;-51
2023/01/29 04:16:25;;;;;;;949.07;854.63;;;-3.60;99.90;;;;;;5068290;28;20690;-51
2023/01/29 04:18:56;;;;;;;1999.90;999.90;;;-3.60;99.90;;;;;;5054326;28;20207;-51
2023/01/29 04:21:25;;;;;;;1488.07;999.90;;;-3.60;99.90;;;;;;5068244;28;20235;-51
2023/01/29 04:23:53;;;;;;;1279.33;985.60;;;-3.60;99.90;;;;;;5068205;28;20218;-51
2023/01/29 04:26:55;;;;;;;1032.07;933.80;;;-3.70;99.90;;;;;;5055735;28;20623;-51
2023/01/29 04:29:38;;;;;;;1082.77;952.03;;;-3.70;99.90;;;;;;5071328;28;20663;-51
2023/01/29 04:32:14;;;;;;;1149.03;959.20;;;-3.70;99.90;;;;;;5046910;28;20231;-51
2023/01/29 04:34:55;;;;;;;1247.20;999.90;;;-3.70;99.90;;;;;;5072047;28;20241;-51
2023/01/29 04:37:32;;;;;;;1020.03;896.57;;;-3.80;99.90;;;;;;5071397;28;20293;-51
2023/01/29 04:40:11;;;;;;;1424.70;999.90;;;-3.80;99.90;;;;;;5071699;28;20230;-51
2023/01/29 04:42:47;;;;;;;1180.10;980.40;;;-3.80;99.90;;;;;;5056580;28;20672;-51
2023/01/29 04:45:22;;;;;;;1196.13;999.90;;;-3.80;99.90;;;;;;5067557;28;20580;-51
2023/01/29 04:47:59;;;;;;;1078.57;925.83;;;-3.90;99.90;;;;;;5066838;28;20233;-51
2023/01/29 04:50:34;;;;;;;899.50;806.60;;;-3.90;99.90;;;;;;5057106;28;20211;-51
2023/01/29 04:53:07;;;;;;;1150.10;972.07;;;-3.90;99.90;;;;;;5070683;28;20306;-51
2023/01/29 04:55:41;;;;;;;1270.03;986.47;;;-3.90;99.90;;;;;;5071935;28;20234;-50
2023/01/29 04:58:14;;;;;;;1122.23;978.43;;;-3.90;99.90;;;;;;5071463;28;20204;-51
2023/01/29 05:00:45;;;;;;;1999.90;999.90;;;-3.90;99.90;;;;;;5071613;28;20222;-51
2023/01/29 05:03:15;;;;;;;1456.87;995.03;;;-3.90;99.90;;;;;;5071435;28;20262;-50
2023/01/29 05:05:47;;;;;;;1999.90;999.90;;;-4.00;99.90;;;;;;5071828;28;20291;-51
2023/01/29 05:08:19;;;;;;;1598.37;999.90;;;-4.00;99.90;;;;;;5071052;28;20265;-51
2023/01/29 05:10:49;;;;;;;1450.23;999.90;;;-4.00;99.90;;;;;;5071465;28;20243;-51
2023/01/29 05:13:20;;;;;;;1807.53;999.90;;;-4.00;99.90;;;;;;5058736;28;20829;-50
2023/01/29 05:15:52;;;;;;;1205.57;999.90;;;-4.10;99.90;;;;;;5071670;28;20209;-50
2023/01/29 05:18:20;;;;;;;1282.87;999.90;;;-4.10;99.90;;;;;;5043352;28;20205;-51
2023/01/29 05:20:50;;;;;;;1273.83;999.90;;;-4.10;99.90;;;;;;5058615;28;20231;-51
2023/01/29 05:23:19;;;;;;;1463.57;999.73;;;-4.10;99.90;;;;;;5070206;28;20325;-51
2023/01/29 05:25:48;;;;;;;1005.23;885.73;;;-4.10;99.90;;;;;;5071164;28;20698;-50
2023/01/29 05:28:16;;;;;;;1999.90;999.90;;;-4.00;99.90;;;;;;5071241;28;20292;-50
2023/01/29 05:30:45;;;;;;;1281.50;999.90;;;-4.00;99.90;;;;;;5071091;28;20937;-51
2023/01/29 05:33:15;;;;;;;1999.90;999.90;;;-4.00;99.90;;;;;;5061797;28;20255;-50
2023/01/29 05:35:43;;;;;;;1108.53;989.87;;;-4.00;99.90;;;;;;5070942;28;20302;-50
2023/01/29 05:38:13;;;;;;;942.80;856.50;;;-4.00;99.90;;;;;;5069583;28;20215;-51
2023/01/29 05:40:41;;;;;;;1011.13;912.50;;;-4.00;99.90;;;;;;5058397;28;20229;-50
2023/01/29 05:43:15;;;;;;;1061.43;956.43;;;-4.00;99.90;;;;;;5051067;28;20318;-51
2023/01/29 05:45:43;;;;;;;1391.57;999.90;;;-4.00;99.90;;;;;;5060419;28;20298;-51
2023/01/29 05:48:11;;;;;;;1314.70;999.90;;;-4.00;99.90;;;;;;5058316;28;20243;-50
2023/01/29 05:50:39;;;;;;;1013.90;912.00;;;-4.00;99.90;;;;;;5049717;28;20195;-51
2023/01/29 05:53:08;;;;;;;1485.10;999.90;;;-4.00;99.90;;;;;;5064431;28;20966;-51
2023/01/29 05:55:38;;;;;;;959.90;872.17;;;-3.90;99.90;;;;;;5050154;28;20306;-51
2023/01/29 05:58:06;;;;;;;1045.53;944.03;;;-3.90;99.90;;;;;;5056274;28;20213;-51
2023/01/29 06:00:34;;;;;;;921.87;833.20;;;-3.90;99.90;;;;;;5057236;28;20226;-51
2023/01/29 06:03:02;;;;;;;879.90;802.03;;;-3.90;99.90;;;;;;5058002;28;20223;-51
2023/01/29 06:05:30;;;;;;;1056.70;948.27;;;-3.90;99.90;;;;;;5067160;28;20200;-51
2023/01/29 06:07:58;;;;;;;958.27;859.30;;;-3.90;99.90;;;;;;5057546;28;20633;-51
2023/01/29 06:10:26;;;;;;;1037.07;913.83;;;-3.90;99.90;;;;;;5052206;28;20306;-51
2023/01/29 06:12:55;;;;;;;970.97;874.57;;;-3.90;99.90;;;;;;5065903;28;20231;-51
2023/01/29 06:15:25;;;;;;;1152.50;918.00;;;-3.90;99.90;;;;;;5061904;28;20301;-51
2023/01/29 06:17:53;;;;;;;1178.57;999.90;;;-3.90;99.90;;;;;;5066421;28;20227;-51
2023/01/29 06:20:21;;;;;;;1051.40;939.13;;;-3.90;99.90;;;;;;5062007;28;20294;-51
2023/01/29 06:22:49;;;;;;;913.47;822.07;;;-3.90;99.90;;;;;;5062491;28;20314;-51
2023/01/29 06:25:17;;;;;;;877.97;791.73;;;-3.80;99.90;;;;;;5067010;28;20243;-51
2023/01/29 06:27:45;;;;;;;1260.00;992.13;;;-3.90;99.90;;;;;;5058783;28;20290;-50
2023/01/29 06:30:15;;;;;;;1238.63;993.47;;;-3.90;99.90;;;;;;5062547;28;20210;-50
2023/01/29 06:32:44;;;;;;;1141.90;999.90;;;-3.90;99.90;;;;;;5061705;28;20234;-50
2023/01/29 06:35:12;;;;;;;1209.10;951.67;;;-4.00;99.90;;;;;;5056990;28;20221;-51
2023/01/29 06:37:40;;;;;;;1110.50;994.43;;;-3.90;99.90;;;;;;5065483;28;20218;-51
2023/01/29 06:40:09;;;;;;;1240.80;999.90;;;-3.90;99.90;;;;;;5057259;28;20327;-51
2023/01/29 06:42:37;;;;;;;1054.57;947.67;;;-3.90;99.90;;;;;;5053267;28;20791;-51
2023/01/29 06:45:06;;;;;;;1275.83;999.90;;;-3.80;99.90;;;;;;5048541;28;20307;-51
2023/01/29 06:47:36;;;;;;;1414.20;999.90;;;-3.80;99.90;;;;;;5068861;28;20304;-51
2023/01/29 06:50:04;;;;;;;929.57;841.33;;;-3.70;99.90;;;;;;5052720;28;20212;-51
2023/01/29 06:52:32;;;;;;;1092.73;949.50;;;-3.60;99.90;;;;;;5046270;28;20315;-51
2023/01/29 06:55:00;;;;;;;1364.17;998.33;;;-3.60;99.90;;;;;;5049193;28;20635;-50
2023/01/29 06:57:29;;;;;;;1081.37;964.53;;;-3.60;99.90;;;;;;5048946;28;20205;-51
2023/01/29 06:59:58;;;;;;;1153.37;999.90;;;-3.60;99.90;;;;;;5046003;28;20684;-51
2023/01/29 07:02:26;;;;;;;1083.63;876.50;;;-3.50;99.90;;;;;;5048415;28;20230;-51
2023/01/29 07:04:55;;;;;;;1032.30;923.30;;;-3.40;99.90;;;;;;5048944;28;20588;-51
2023/01/29 07:07:23;;;;;;;737.57;664.73;;;-3.30;99.90;;;;;;5048783;28;20258;-51
2023/01/29 07:09:51;;;;;;;675.97;607.63;;;-3.30;99.90;;;;;;5048546;28;21643;-51
2023/01/29 07:12:19;;;;;;;621.90;568.10;;;-3.20;99.90;;;;;;5048108;28;20286;-51
2023/01/29 07:14:47;;;;;;;612.80;554.27;;;-3.20;99.90;;;;;;5048408;28;20202;-51
2023/01/29 07:17:15;;;;;;;630.70;570.70;;;-3.10;99.90;;;;;;5048442;28;20208;-51
2023/01/29 07:19:43;;;;;;;860.17;769.53;;;-3.00;99.90;;;;;;5048626;28;20295;-51
2023/01/29 07:22:13;;;;;;;869.90;753.20;;;-3.00;99.90;;;;;;5045319;28;20786;-51
2023/01/29 07:24:41;;;;;;;828.13;723.40;;;-2.90;99.90;;;;;;5045228;28;20296;-51
2023/01/29 07:27:09;;;;;;;866.13;774.97;;;-2.90;99.90;;;;;;5047976;28;20299;-50
2023/01/29 07:29:36;;;;;;;963.77;861.83;;;-2.90;99.90;;;;;;5050273;28;20567;-51
2023/01/29 07:32:06;;;;;;;564.10;511.30;;;-2.80;99.90;;;;;;5047491;28;20702;-51
2023/01/29 07:34:34;;;;;;;556.30;497.03;;;-2.80;99.90;;;;;;5048186;28;20296;-51
2023/01/29 07:37:04;;;;;;;603.80;533.47;;;-2.70;99.90;;;;;;5047433;28;20205;-53
2023/01/29 07:39:34;;;;;;;999.67;794.57;;;-2.70;99.90;;;;;;5041079;28;20209;-51
2023/01/29 07:42:02;;;;;;;908.50;782.03;;;-2.70;99.90;;;;;;5047545;28;20235;-51
2023/01/29 07:44:30;;;;;;;466.17;426.47;;;-2.60;99.90;;;;;;5048092;28;20307;-51
2023/01/29 07:46:58;;;;;;;587.20;528.33;;;-2.50;99.90;;;;;;5039336;28;20211;-49
2023/01/29 07:49:26;;;;;;;628.73;555.33;;;-2.40;99.90;;;;;;5048450;28;20308;-50
2023/01/29 07:51:54;;;;;;;1204.47;650.80;;;-2.30;99.90;;;;;;5060845;28;20232;-52
2023/01/29 07:54:22;;;;;;;707.37;628.93;;;-2.30;99.90;;;;;;5068772;28;20333;-50
2023/01/29 07:56:51;;;;;;;521.23;470.67;;;-2.30;99.90;;;;;;5069085;28;20244;-51
2023/01/29 07:59:19;;;;;;;378.40;346.17;;;-2.20;99.90;;;;;;5060846;28;20203;-51
2023/01/29 08:01:47;;;;;;;391.20;358.73;;;-2.10;99.90;;;;;;5061861;28;20225;-52
2023/01/29 08:04:15;;;;;;;577.67;515.33;;;-2.10;99.90;;;;;;5052118;28;20206;-52
2023/01/29 08:06:43;;;;;;;456.20;419.67;;;-2.00;99.90;;;;;;5052490;28;20979;-52
2023/01/29 08:09:11;;;;;;;321.30;293.33;;;-1.90;99.90;;;;;;5052211;28;20206;-53
2023/01/29 08:11:39;;;;;;;409.43;370.80;;;-1.90;99.90;;;;;;5051554;28;21058;-51
2023/01/29 08:14:09;;;;;;;416.73;381.67;;;-1.90;99.90;;;;;;5052193;28;20582;-51
2023/01/29 08:16:37;;;;;;;270.47;249.30;;;-1.80;99.90;;;;;;5052182;28;20237;-52
2023/01/29 08:19:05;;;;;;;512.60;460.57;;;-1.80;99.90;;;;;;5052169;28;20202;-50
2023/01/29 08:21:33;;;;;;;362.60;333.30;;;-1.80;99.90;;;;;;5052153;28;20311;-51
2023/01/29 08:24:01;;;;;;;682.57;619.60;;;-1.80;99.90;;;;;;5051064;28;20202;-51
2023/01/29 08:26:29;;;;;;;655.90;583.30;;;-1.70;99.90;;;;;;5051336;28;20205;-52
2023/01/29 08:28:57;;;;;;;705.37;629.73;;;-1.70;99.90;;;;;;5046425;28;20237;-53
2023/01/29 08:31:26;;;;;;;469.57;429.20;;;-1.70;99.90;;;;;;5041257;28;20599;-52
2023/01/29 08:33:55;;;;;;;551.27;491.60;;;-1.60;99.90;;;;;;5051980;28;20201;-52
2023/01/29 08:36:23;;;;;;;309.53;285.00;;;-1.70;99.90;;;;;;5049518;28;20214;-52
2023/01/29 08:38:51;;;;;;;468.37;404.53;;;-1.70;99.90;;;;;;5049131;28;20205;-52
2023/01/29 08:41:19;;;;;;;644.43;577.07;;;-1.50;99.90;;;;;;5042467;28;20638;-52
2023/01/29 08:43:48;;;;;;;420.40;360.70;;;-1.50;99.90;;;;;;5050471;28;20230;-52
2023/01/29 08:46:16;;;;;;;421.63;382.07;;;-1.50;99.90;;;;;;5050856;28;20333;-51
2023/01/29 08:48:45;;;;;;;235.73;214.27;;;-1.60;99.90;;;;;;5051109;28;20243;-52
2023/01/29 08:51:13;;;;;;;263.07;228.37;;;-1.50;99.90;;;;;;5050724;28;20221;-51
2023/01/29 08:53:41;;;;;;;468.33;420.37;;;-1.40;99.90;;;;;;5051433;28;20211;-51
2023/01/29 08:56:09;;;;;;;542.03;460.43;;;-1.40;99.90;;;;;;5051455;28;20210;-53
2023/01/29 08:58:37;;;;;;;254.67;198.37;;;-1.30;99.90;;;;;;5051092;28;20210;-51
2023/01/29 09:01:07;;;;;;;560.80;472.43;;;-1.30;99.90;;;;;;5051727;28;20662;-51
2023/01/29 09:03:35;;;;;;;570.80;431.23;;;-1.30;99.90;;;;;;5051382;28;20226;-52
2023/01/29 09:06:05;;;;;;;745.87;498.03;;;-1.30;99.90;;;;;;5050875;28;20672;-53
2023/01/29 09:08:34;;;;;;;638.70;570.50;;;-1.30;99.90;;;;;;5050942;28;20744;-51
2023/01/29 09:11:02;;;;;;;789.47;510.07;;;-1.30;99.90;;;;;;5050860;28;20229;-51
2023/01/29 09:13:30;;;;;;;674.47;424.37;;;-1.30;99.90;;;;;;5050181;28;20316;-51
2023/01/29 09:16:00;;;;;;;526.50;343.67;;;-1.20;99.90;;;;;;5051254;28;20198;-51
2023/01/29 09:18:28;;;;;;;483.27;431.80;;;-1.20;99.90;;;;;;5051008;28;20237;-51
2023/01/29 09:20:57;;;;;;;566.67;436.47;;;-1.10;99.90;;;;;;5051033;28;20238;-51
2023/01/29 09:23:26;;;;;;;606.37;403.13;;;-1.10;99.90;;;;;;5050408;28;20268;-51
2023/01/29 09:25:54;;;;;;;414.30;324.43;;;-1.10;99.90;;;;;;5051389;28;20236;-51
2023/01/29 09:28:22;;;;;;;977.53;557.27;;;-1.10;99.90;;;;;;5051052;28;20214;-51
2023/01/29 09:30:50;;;;;;;987.37;411.60;;;-1.10;99.90;;;;;;5051641;28;20221;-51
2023/01/29 09:33:19;;;;;;;455.17;394.40;;;-1.10;99.90;;;;;;5051096;28;20236;-51
2023/01/29 09:35:47;;;;;;;1148.07;580.07;;;-1.00;99.90;;;;;;5048384;28;20293;-51
2023/01/29 09:38:14;;;;;;;895.50;492.13;;;-1.00;99.90;;;;;;5050618;28;20212;-51
2023/01/29 09:40:51;;;;;;;394.47;353.57;;;-0.90;99.90;;;;;;5050743;28;20207;-51
2023/01/29 09:43:24;;;;;;;249.30;223.13;;;-0.80;99.90;;;;;;5049996;28;20230;-51
2023/01/29 09:45:56;;;;;;;839.17;418.97;;;-0.70;99.90;;;;;;5050207;28;20746;-51
2023/01/29 09:48:30;;;;;;;758.57;444.40;;;-0.60;99.90;;;;;;5050689;28;20211;-51
2023/01/29 09:51:00;;;;;;;825.17;405.87;;;-0.50;99.90;;;;;;5055467;28;20288;-51
2023/01/29 09:53:34;;;;;;;358.13;316.03;;;-0.40;99.90;;;;;;5070263;28;20231;-51
2023/01/29 09:56:05;;;;;;;786.73;446.77;;;-0.40;99.90;;;;;;5060215;28;20203;-50
2023/01/29 09:58:36;;;;;;;475.13;425.63;;;-0.50;99.90;;;;;;5070695;28;20233;-51
2023/01/29 10:01:13;;;;;;;1755.73;504.87;;;-0.50;99.90;;;;;;5070635;28;20668;-51
2023/01/29 10:04:02;;;;;;;842.77;475.23;;;-0.50;99.90;;;;;;5062699;28;20880;-51
2023/01/29 10:06:43;;;;;;;335.60;305.40;;;-0.50;99.90;;;;;;5044134;28;20209;-52
2023/01/29 10:09:49;;;;;;;1612.60;735.63;;;-0.50;99.90;;;;;;5069362;28;20206;-51
2023/01/29 10:12:33;;;;;;;1226.47;580.53;;;-0.60;99.90;;;;;;5050380;28;20252;-51
2023/01/29 10:15:16;;;;;;;911.57;498.70;;;-0.50;99.90;;;;;;5044212;28;20238;-52
2023/01/29 10:18:03;;;;;;;601.17;446.87;;;-0.50;99.90;;;;;;5069983;28;20298;-51
2023/01/29 10:20:48;;;;;;;696.37;367.70;;;-0.60;99.90;;;;;;5059764;28;20212;-51
2023/01/29 10:23:24;;;;;;;562.57;469.87;;;-0.60;99.90;;;;;;5067372;28;20245;-51
2023/01/29 10:25:54;;;;;;;441.20;348.60;;;-0.50;99.90;;;;;;5069768;28;20203;-51
2023/01/29 10:28:28;;;;;;;1897.00;553.07;;;-0.40;99.90;;;;;;5045701;28;20226;-51
2023/01/29 10:31:00;;;;;;;1999.90;755.47;;;-0.30;99.90;;;;;;5061801;28;20204;-51
2023/01/29 10:33:34;;;;;;;639.50;336.07;;;-0.30;99.90;;;;;;5065090;28;20700;-51
2023/01/29 10:36:27;;;;;;;700.47;374.50;;;-0.20;99.90;;;;;;5069316;28;20215;-51
2023/01/29 10:38:55;;;;;;;1472.17;480.33;;;-0.10;99.90;;;;;;5069083;28;20216;-51
2023/01/29 10:41:44;;;;;;;700.43;357.80;;;0.00;99.90;;;;;;5063789;28;20259;-51
2023/01/29 10:44:27;;;;;;;761.83;431.53;;;0.10;99.90;;;;;;5069263;28;20275;-51
2023/01/29 10:47:23;;;;;;;548.87;260.93;;;0.30;99.90;;;;;;5069010;28;20290;-50
2023/01/29 10:50:08;;;;;;;1612.07;529.23;;;0.30;99.90;;;;;;5059035;28;20300;-51
2023/01/29 10:52:48;;;;;;;326.03;294.87;;;0.30;99.90;;;;;;5067554;28;20313;-51
2023/01/29 10:55:30;;;;;;;571.33;351.60;;;0.40;99.90;;;;;;5069453;28;20262;-51
2023/01/29 10:58:06;;;;;;;337.23;310.30;;;0.40;99.90;;;;;;5061246;28;20653;-51
2023/01/29 11:00:37;;;;;;;332.17;299.23;;;0.40;99.90;;;;;;5040743;28;20652;-51
2023/01/29 11:03:15;;;;;;;591.07;463.67;;;0.30;99.90;;;;;;5042269;28;20689;-51
2023/01/29 11:06:01;;;;;;;243.57;173.57;;;0.30;99.90;;;;;;5069346;28;20212;-51
2023/01/29 11:08:34;;;;;;;483.47;413.77;;;0.40;99.90;;;;;;5069128;28;20200;-51
2023/01/29 11:11:07;;;;;;;532.20;317.27;;;0.50;99.90;;;;;;5068815;28;20284;-51
2023/01/29 11:13:40;;;;;;;449.17;325.27;;;0.50;99.90;;;;;;5068360;28;20284;-51
2023/01/29 11:16:10;;;;;;;914.47;439.83;;;0.60;99.90;;;;;;5068845;28;20824;-50
2023/01/29 11:18:57;;;;;;;1625.83;462.83;;;0.50;99.90;;;;;;5064861;28;20739;-53
2023/01/29 11:21:27;;;;;;;660.20;277.40;;;0.40;99.90;;;;;;5046300;28;20236;-52
2023/01/29 11:24:07;;;;;;;487.03;235.10;;;0.30;99.90;;;;;;5047013;28;20237;-52
2023/01/29 11:26:39;;;;;;;288.60;263.10;;;0.40;99.90;;;;;;5041088;28;20203;-51
2023/01/29 11:29:37;;;;;;;314.60;250.47;;;0.50;99.90;;;;;;5043042;28;20205;-51
2023/01/29 11:32:11;;;;;;;820.97;376.17;;;0.50;99.90;;;;;;5047612;28;20847;-51
2023/01/29 11:34:58;;;;;;;1030.50;444.20;;;0.40;99.90;;;;;;5048164;28;20217;-51
2023/01/29 11:37:34;;;;;;;1119.50;477.90;;;0.50;99.90;;;;;;5042609;28;20204;-51
2023/01/29 11:40:22;;;;;;;535.10;365.60;;;0.50;99.90;;;;;;5048045;28;20746;-51
2023/01/29 11:42:52;;;;;;;426.37;296.43;;;0.50;99.90;;;;;;5042701;28;20312;-51
2023/01/29 11:45:26;;;;;;;396.97;274.20;;;0.60;99.90;;;;;;5048111;28;20224;-51
2023/01/29 11:47:56;;;;;;;869.67;359.60;;;0.70;99.90;;;;;;5040616;28;20236;-51
2023/01/29 11:50:26;;;;;;;966.33;420.37;;;0.60;99.90;;;;;;5048909;28;20296;-51
2023/01/29 11:52:54;;;;;;;217.60;189.03;;;0.70;99.90;;;;;;5062856;28;20316;-51
2023/01/29 11:55:25;;;;;;;364.60;179.53;;;0.70;99.90;;;;;;5064894;28;20230;-51
2023/01/29 11:57:59;;;;;;;281.87;253.50;;;0.60;99.90;;;;;;5044314;28;20282;-51
2023/01/29 12:00:30;;;;;;;895.93;296.30;;;0.70;99.90;;;;;;5065323;28;20227;-51
2023/01/29 12:03:05;;;;;;;180.00;163.43;;;0.50;99.90;;;;;;5068166;28;20267;-51
2023/01/29 12:05:34;;;;;;;726.37;271.37;;;0.50;99.90;;;;;;5047608;28;20319;-51
2023/01/29 12:08:02;;;;;;;241.53;219.63;;;0.50;99.90;;;;;;5066978;28;20219;-51
2023/01/29 12:10:34;;;;;;;338.47;229.37;;;0.50;99.90;;;;;;5062604;28;20697;-51
2023/01/29 12:13:06;;;;;;;649.17;277.30;;;0.50;99.90;;;;;;5068417;28;20229;-51
2023/01/29 12:15:35;;;;;;;1201.53;447.17;;;0.50;99.90;;;;;;5068682;28;20246;-51
2023/01/29 12:18:12;;;;;;;155.43;118.33;;;0.60;99.90;;;;;;5068525;28;20299;-52
2023/01/29 12:20:45;;;;;;;389.83;221.53;;;0.60;99.90;;;;;;5068908;28;20216;-50
2023/01/29 12:23:27;;;;;;;1443.60;368.50;;;0.60;99.90;;;;;;5053743;28;20340;-52
2023/01/29 12:26:01;;;;;;;138.93;127.13;;;0.70;99.90;;;;;;5064363;28;20329;-51
2023/01/29 12:28:41;;;;;;;232.63;170.33;;;0.80;99.90;;;;;;5058970;28;20297;-51
2023/01/29 12:31:23;;;;;;;471.90;309.77;;;0.90;99.90;;;;;;5061533;28;20299;-51
2023/01/29 12:33:57;;;;;;;191.73;142.53;;;1.10;99.90;;;;;;5039279;28;20221;-51
2023/01/29 12:36:31;;;;;;;305.67;271.83;;;1.20;99.90;;;;;;5048389;28;20213;-51
2023/01/29 12:38:59;;;;;;;427.60;243.97;;;1.20;99.90;;;;;;5061493;28;20291;-51
2023/01/29 12:41:39;;;;;;;240.40;217.07;;;1.20;99.90;;;;;;5065623;28;20577;-52
2023/01/29 12:44:15;;;;;;;205.40;187.67;;;1.20;99.90;;;;;;5047818;28;20740;-51
2023/01/29 12:46:49;;;;;;;356.60;322.63;;;1.30;99.90;;;;;;5044857;28;20672;-50
2023/01/29 12:49:23;;;;;;;406.13;319.60;;;1.30;99.90;;;;;;5055182;28;20259;-49
2023/01/29 12:51:58;;;;;;;509.33;262.17;;;1.30;99.90;;;;;;5047039;28;20234;-51
2023/01/29 12:54:35;;;;;;;186.27;135.27;;;1.40;99.90;;;;;;5048977;28;20197;-50
2023/01/29 12:57:09;;;;;;;201.00;182.50;;;1.60;99.90;;;;;;5049830;28;20685;-51
2023/01/29 12:59:43;;;;;;;563.90;340.17;;;1.60;99.90;;;;;;5048221;28;20209;-49
2023/01/29 13:02:24;;;;;;;173.57;156.00;;;1.60;99.90;;;;;;5049010;28;20765;-51
2023/01/29 13:04:59;;;;;;;497.30;301.20;;;1.60;99.90;;;;;;5047630;28;20252;-51
2023/01/29 13:07:32;;;;;;;296.20;167.50;;;1.50;99.90;;;;;;5049667;28;20697;-51